Time;durP1;ratioP1;P1;durP2;ratioP2;P2;SDS_P1;SDS_P2;PMS_P1;PMS_P2;Temp;Humidity;BMP_temperature;BMP_pressure;BME280_temperature;BME280_humidity;BME280_pressure;Samples;Min_cycle;Max_cycle;Signal;HPM_P1;HPM_P2
2023/04/04 00:04:17;;;;;;;;;;;;;;;;;;;;;
2023/04/04 00:16:03;;;;;;;;;;;;;;;;;;5905416;23;19975;-93
2023/04/04 00:27:45;;;;;;;;;;;;;;;;;;;;;
2023/04/04 00:48:39;;;;;;;;;;;;;;;;;;;;;
2023/04/04 00:58:00;;;;;;;;;;;;;;;;;;;;;
2023/04/04 01:03:38;;;;;;;;;;;;;;;;;;6193659;23;19961;-93
2023/04/04 01:12:30;;;;;;;;;;;;;;;;;;6213077;23;19923;-93
2023/04/04 01:23:51;;;;;;;;;;;;;;;;;;6227259;23;20370;-93
2023/04/04 01:40:51;;;;;;;;;;;;;;;;;;6239984;22;19922;-92
2023/04/04 01:43:27;;;;;;;;;;;;;;;;;;;;;
2023/04/04 01:46:05;;;;;;;;;;;;;;;;;;6258923;22;19994;-94
2023/04/04 01:51:39;;;;;;;;;;;;;;;;;;;;;
2023/04/04 01:54:15;;;;;;;;;;;;;;;;;;;;;
2023/04/04 01:56:47;;;;;;;;;;;;;;;;;;6266133;22;19919;-92
2023/04/04 01:59:35;;;;;;;;;;;;;;;;;;6242245;22;19999;-93
2023/04/04 02:02:10;;;;;;;;;;;;;;;;;;6264891;22;19919;-93
2023/04/04 02:04:42;;;;;;;;;;;;;;;;;;6240344;22;19948;-92
2023/04/04 02:07:08;;;;;;;;;;;;;;;;;;6235339;22;19923;-92
2023/04/04 02:09:46;;;;;;;;;;;;;;;;;;6241594;22;19958;-92
2023/04/04 02:12:27;;;;;;;;;;;;;;;;;;6265680;22;20321;-93
2023/04/04 02:14:56;;;;;;;;;;;;;;;;;;6263048;22;19971;-92
2023/04/04 02:17:28;;;;;;;;;;;;;;;;;;6237855;22;19990;-93
2023/04/04 02:19:54;;;;;;;;;;;;;;;;;;6236478;22;19923;-93
2023/04/04 02:22:26;;;;;;;;;;;;;;;;;;6237155;22;19963;-92
2023/04/04 02:25:08;;;;;;;;;;;;;;;;;;;;;
2023/04/04 02:27:37;;;;;;;;;;;;;;;;;;6262483;22;20751;-92
2023/04/04 02:30:03;;;;;;;;;;;;;;;;;;6236160;22;19923;-93
2023/04/04 02:32:35;;;;;;;;;;;;;;;;;;6239656;22;19923;-93
2023/04/04 02:38:03;;;;;;;;;;;;;;;;;;;;;
2023/04/04 02:43:36;;;;;;;;;;;;;;;;;;6239955;22;19919;-92
2023/04/04 02:46:05;;;;;;;;;;;;;;;;;;6235074;22;20672;-91
2023/04/04 02:48:42;;;;;;;;;;;;;;;;;;6241932;22;19926;-92
2023/04/04 02:51:23;;;;;;;;;;;;;;;;;;6241171;22;19964;-94
2023/04/04 02:54:07;;;;;;;;;;;;;;;;;;6262339;22;19923;-91
2023/04/04 02:56:41;;;;;;;;;;;;;;;;;;6234784;22;19919;-91
2023/04/04 02:59:35;;;;;;;;;;;;;;;;;;6264509;22;19926;-92
2023/04/04 03:04:50;;;;;;;;;;;;;;;;;;6260866;22;19925;-92
2023/04/04 03:07:16;;;;;;;;;;;;;;;;;;6236498;22;19926;-91
2023/04/04 03:09:45;;;;;;;;;;;;;;;;;;6239709;22;20006;-92
2023/04/04 03:12:20;;;;;;;;;;;;;;;;;;6239954;22;20351;-93
2023/04/04 03:14:49;;;;;;;;;;;;;;;;;;6260024;22;20268;-91
2023/04/04 03:22:53;;;;;;;;;;;;;;;;;;6261020;22;19919;-93
2023/04/04 03:25:47;;;;;;;;;;;;;;;;;;6240634;22;19919;-92
2023/04/04 03:28:18;;;;;;;;;;;;;;;;;;6266822;22;19934;-93
2023/04/04 03:30:46;;;;;;;;;;;;;;;;;;6239616;22;19959;-92
2023/04/04 03:33:20;;;;;;;;;;;;;;;;;;6237207;22;19927;-93
2023/04/04 03:41:28;;;;;;;;;;;;;;;;;;6237179;22;20248;-92
2023/04/04 03:44:05;;;;;;;;;;;;;;;;;;6245131;22;19916;-92
2023/04/04 03:46:34;;;;;;;;;;;;;;;;;;6252189;22;19938;-92
2023/04/04 03:49:06;;;;;;;;;;;;;;;;;;6277154;22;19926;-91
2023/04/04 03:51:41;;;;;;;;;;;;;;;;;;6251725;22;19915;-92
2023/04/04 03:54:07;;;;;;;;;;;;;;;;;;6256354;22;19923;-92
2023/04/04 03:56:38;;;;;;;;;;;;;;;;;;6246849;22;19926;-91
2023/04/04 03:59:10;;;;;;;;;;;;;;;;;;6237680;22;19919;-92
2023/04/04 04:01:38;;;;;;;;;;;;;;;;;;6234239;22;20321;-93
2023/04/04 04:04:04;;;;;;;;;;;;;;;;;;6236138;22;19915;-92
2023/04/04 04:06:39;;;;;;;;;;;;;;;;;;6243545;22;19969;-92
2023/04/04 04:09:08;;;;;;;;;;;;;;;;;;6249043;22;20513;-93
2023/04/04 04:11:35;;;;;;;;;;;;;;;;;;6254242;22;19965;-93
2023/04/04 04:14:08;;;;;;;;;;;;;;;;;;6257656;22;19919;-93
2023/04/04 04:16:34;;;;;;;;;;;;;;;;;;6253526;22;19993;-91
2023/04/04 04:19:01;;;;;;;;;;;;;;;;;;6269961;22;19916;-92
2023/04/04 04:21:27;;;;;;;;;;;;;;;;;;6242148;22;19919;-92
2023/04/04 04:23:55;;;;;;;;;;;;;;;;;;6253911;22;19946;-92
2023/04/04 04:26:22;;;;;;;;;;;;;;;;;;6267404;22;19921;-93
2023/04/04 04:28:58;;;;;;;;;;;;;;;;;;6240673;22;19977;-92
2023/04/04 04:31:32;;;;;;;;;;;;;;;;;;6265668;22;19916;-92
2023/04/04 04:34:06;;;;;;;;;;;;;;;;;;6239953;22;20287;-92
2023/04/04 04:36:39;;;;;;;;;;;;;;;;;;6271253;22;20020;-92
2023/04/04 04:39:05;;;;;;;;;;;;;;;;;;6244456;22;20064;-91
2023/04/04 04:41:31;;;;;;;;;;;;;;;;;;6243911;22;20302;-92
2023/04/04 04:44:03;;;;;;;;;;;;;;;;;;6242303;22;19941;-92
2023/04/04 04:46:40;;;;;;;;;;;;;;;;;;6245550;22;19961;-92
2023/04/04 04:49:06;;;;;;;;;;;;;;;;;;6240950;22;20282;-93
2023/04/04 04:51:35;;;;;;;;;;;;;;;;;;6245771;22;19918;-92
2023/04/04 04:54:03;;;;;;;;;;;;;;;;;;6242794;22;20276;-92
2023/04/04 04:56:31;;;;;;;;;;;;;;;;;;6243501;22;20233;-93
2023/04/04 04:59:00;;;;;;;;;;;;;;;;;;6238601;22;20631;-91
2023/04/04 05:01:37;;;;;;;;;;;;;;;;;;6243702;22;19915;-92
2023/04/04 05:04:13;;;;;;;;;;;;;;;;;;6237046;22;20033;-92
2023/04/04 05:09:44;;;;;;;;;;;;;;;;;;;;;
2023/04/04 05:12:13;;;;;;;;;;;;;;;;;;6266348;22;19935;-91
2023/04/04 05:17:28;;;;;;;;;;;;;;;;;;6243635;22;20301;-92
2023/04/04 05:19:55;;;;;;;;;;;;;;;;;;6238528;22;19919;-91
2023/04/04 05:22:26;;;;;;;;;;;;;;;;;;6240221;22;19918;-91
2023/04/04 05:25:13;;;;;;;;;;;;;;;;;;6242415;22;20332;-92
2023/04/04 05:27:41;;;;;;;;;;;;;;;;;;6267853;22;20001;-91
2023/04/04 05:30:08;;;;;;;;;;;;;;;;;;6240544;22;20206;-92
2023/04/04 05:32:34;;;;;;;;;;;;;;;;;;6240687;22;20623;-91
2023/04/04 05:35:02;;;;;;;;;;;;;;;;;;6255936;22;19919;-92
2023/04/04 05:37:28;;;;;;;;;;;;;;;;;;6258973;22;19919;-91
2023/04/04 05:39:54;;;;;;;;;;;;;;;;;;6231883;22;19919;-91
2023/04/04 05:42:23;;;;;;;;;;;;;;;;;;6258954;22;19915;-91
2023/04/04 05:44:52;;;;;;;;;;;;;;;;;;6229922;22;19926;-92
2023/04/04 05:50:22;;;;;;;;;;;;;;;;;;6282148;22;20247;-82
2023/04/04 05:52:47;;;;;;;;;;;;;;;;;;6263054;22;19915;-82
2023/04/04 05:55:13;;;;;;;;;;;;;;;;;;6241163;22;19922;-82
2023/04/04 05:57:39;;;;;;;;;;;;;;;;;;6293879;22;20104;-82
2023/04/04 06:00:06;;;;;;;;;;;;;;;;;;6262936;22;20468;-82
2023/04/04 06:02:32;;;;;;;;;;;;;;;;;;6264212;22;19915;-82
2023/04/04 06:04:58;;;;;;;;;;;;;;;;;;6261045;22;20270;-82
2023/04/04 06:07:24;;;;;;;;;;;;;;;;;;6244860;22;19919;-82
2023/04/04 06:09:52;;;;;;;;;;;;;;;;;;6243182;22;20300;-82
2023/04/04 06:12:17;;;;;;;;;;;;;;;;;;6266402;22;20319;-82
2023/04/04 06:26:11;;;;;;;;;;;;;;;;;;;;;
2023/04/04 06:29:12;;;;;;;;;;;;;;;;;;6265606;22;20002;-83
2023/04/04 06:31:52;;;;;;;;;;;;;;;;;;6242316;22;19918;-84
2023/04/04 06:37:31;;;;;;;;;;;;;;;;;;6116237;23;19927;-84
2023/04/04 06:40:05;;;;;;;;;;;;;;;;;;6095097;23;20309;-84
2023/04/04 06:48:42;;;;;;;;;;;;;;;;;;6088780;23;19920;-84
2023/04/04 06:51:34;;;;;;;;;;;;;;;;;;6089772;23;20012;-84
2023/04/04 06:54:21;;;;;;;;;;;;;;;;;;6086998;23;19999;-84
2023/04/04 06:57:01;;;;;;;;;;;;;;;;;;6085912;23;19921;-84
2023/04/04 06:59:51;;;;;;;;;;;;;;;;;;6105428;23;19948;-84
2023/04/04 07:02:37;;;;;;;;;;;;;;;;;;;;;
2023/04/04 07:05:16;;;;;;;;;;;;;;;;;;;;;
2023/04/04 07:07:48;;;;;;;;;;;;;;;;;;6147847;23;19916;-84
2023/04/04 07:10:23;;;;;;;;;;;;;;;;;;6175563;23;19972;-85
2023/04/04 07:13:31;;;;;;;;;;;;;;;;;;6133579;23;19921;-84
2023/04/04 07:16:18;;;;;;;;;;;;;;;;;;6144148;23;20410;-84
2023/04/04 07:19:08;;;;;;;;;;;;;;;;;;6169141;23;20539;-85
2023/04/04 07:24:53;;;;;;;;;;;;;;;;;;6166459;23;20407;-85
2023/04/04 07:27:53;;;;;;;;;;;;;;;;;;;;;
2023/04/04 07:30:43;;;;;;;;;;;;;;;;;;6138242;23;19920;-86
2023/04/04 07:33:41;;;;;;;;;;;;;;;;;;;;;
2023/04/04 07:36:37;;;;;;;;;;;;;;;;;;6174602;23;19920;-86
2023/04/04 07:42:14;;;;;;;;;;;;;;;;;;6167532;23;20027;-87
2023/04/04 07:45:03;;;;;;;;;;;;;;;;;;;;;
2023/04/04 07:48:17;;;;;;;;;;;;;;;;;;6091953;23;20386;-88
2023/04/04 07:57:51;;;;;;;;;;;;;;;;;;5999869;23;19917;-89
2023/04/04 08:06:59;;;;;;;;;;;;;;;;;;6227860;22;19923;-88
2023/04/04 08:09:45;;;;;;;;;;;;;;;;;;6178108;23;19955;-89
2023/04/04 08:15:26;;;;;;;;;;;;;;;;;;6191606;23;19930;-89
2023/04/04 08:18:02;;;;;;;;;;;;;;;;;;6171521;22;19927;-82
2023/04/04 08:20:28;;;;;;;;;;;;;;;;;;6247850;22;19929;-82
2023/04/04 08:22:54;;;;;;;;;;;;;;;;;;6267298;22;20332;-82
2023/04/04 08:25:20;;;;;;;;;;;;;;;;;;6246774;22;19979;-82
2023/04/04 08:27:46;;;;;;;;;;;;;;;;;;6246302;22;20220;-82
2023/04/04 08:30:13;;;;;;;;;;;;;;;;;;6246881;22;20380;-81
2023/04/04 08:32:39;;;;;;;;;;;;;;;;;;6271170;22;19919;-81
2023/04/04 08:35:05;;;;;;;;;;;;;;;;;;6240684;22;20634;-82
2023/04/04 08:37:31;;;;;;;;;;;;;;;;;;6270361;22;20422;-82
2023/04/04 08:39:58;;;;;;;;;;;;;;;;;;6266176;22;19919;-82
2023/04/04 08:42:24;;;;;;;;;;;;;;;;;;6270698;22;20447;-81
2023/04/04 08:44:50;;;;;;;;;;;;;;;;;;6242662;22;20289;-82
2023/04/04 08:47:15;;;;;;;;;;;;;;;;;;6272523;22;20002;-82
2023/04/04 08:49:42;;;;;;;;;;;;;;;;;;6271939;22;20358;-82
2023/04/04 08:52:08;;;;;;;;;;;;;;;;;;6245876;22;19919;-81
2023/04/04 08:54:34;;;;;;;;;;;;;;;;;;6273881;22;19922;-82
2023/04/04 08:57:01;;;;;;;;;;;;;;;;;;6243875;22;19918;-82
2023/04/04 08:59:27;;;;;;;;;;;;;;;;;;6244586;22;19989;-82
2023/04/04 09:01:53;;;;;;;;;;;;;;;;;;6270803;22;19915;-81
2023/04/04 09:04:19;;;;;;;;;;;;;;;;;;6272472;22;19990;-81
2023/04/04 09:06:45;;;;;;;;;;;;;;;;;;6272332;22;19919;-81
2023/04/04 09:09:11;;;;;;;;;;;;;;;;;;6247980;22;20346;-82
2023/04/04 09:11:37;;;;;;;;;;;;;;;;;;6301359;22;19915;-81
2023/04/04 09:14:03;;;;;;;;;;;;;;;;;;6296355;22;19926;-82
2023/04/04 09:16:29;;;;;;;;;;;;;;;;;;6271917;22;20344;-82
2023/04/04 09:18:55;;;;;;;;;;;;;;;;;;6243627;22;19919;-82
2023/04/04 09:21:21;;;;;;;;;;;;;;;;;;6299389;22;20327;-82
2023/04/04 09:23:47;;;;;;;;;;;;;;;;;;6271169;22;19998;-82
2023/04/04 09:26:15;;;;;;;;;;;;;;;;;;6298956;22;20060;-82
2023/04/04 09:28:41;;;;;;;;;;;;;;;;;;6298527;22;20329;-82
2023/04/04 09:31:08;;;;;;;;;;;;;;;;;;6268089;22;19998;-82
2023/04/04 09:33:35;;;;;;;;;;;;;;;;;;6269391;22;19954;-82
2023/04/04 09:36:01;;;;;;;;;;;;;;;;;;6268936;22;19918;-84
2023/04/04 09:38:27;;;;;;;;;;;;;;;;;;6269951;22;19919;-84
2023/04/04 09:40:53;;;;;;;;;;;;;;;;;;6295133;22;19969;-84
2023/04/04 09:43:21;;;;;;;;;;;;;;;;;;6270618;22;20325;-84
2023/04/04 09:45:47;;;;;;;;;;;;;;;;;;6269735;22;19923;-82
2023/04/04 09:48:13;;;;;;;;;;;;;;;;;;6246675;22;20258;-82
2023/04/04 09:50:39;;;;;;;;;;;;;;;;;;6271514;22;19945;-81
2023/04/04 09:53:05;;;;;;;;;;;;;;;;;;6269082;22;19927;-82
2023/04/04 09:55:31;;;;;;;;;;;;;;;;;;6271292;22;19926;-82
2023/04/04 09:57:57;;;;;;;;;;;;;;;;;;6295092;22;19919;-82
2023/04/04 10:00:24;;;;;;;;;;;;;;;;;;6270702;22;19919;-82
2023/04/04 10:02:51;;;;;;;;;;;;;;;;;;6297283;22;19915;-82
2023/04/04 10:05:39;;;;;;;;;;;;;;;;;;6298584;22;19919;-82
2023/04/04 10:08:04;;;;;;;;;;;;;;;;;;6268265;22;19915;-82
2023/04/04 10:10:31;;;;;;;;;;;;;;;;;;6272709;22;19965;-82
2023/04/04 10:12:57;;;;;;;;;;;;;;;;;;6270198;22;19923;-82
2023/04/04 10:15:23;;;;;;;;;;;;;;;;;;6270847;22;20001;-82
2023/04/04 10:17:50;;;;;;;;;;;;;;;;;;6244715;22;19950;-82
2023/04/04 10:20:15;;;;;;;;;;;;;;;;;;6240099;22;19919;-82
2023/04/04 10:22:42;;;;;;;;;;;;;;;;;;6267890;22;19946;-82
2023/04/04 10:25:08;;;;;;;;;;;;;;;;;;6264896;22;19923;-82
2023/04/04 10:27:36;;;;;;;;;;;;;;;;;;6268855;22;19919;-82
2023/04/04 10:30:03;;;;;;;;;;;;;;;;;;6265587;22;19919;-82
2023/04/04 10:32:29;;;;;;;;;;;;;;;;;;6267644;22;19973;-82
2023/04/04 10:34:55;;;;;;;;;;;;;;;;;;6236555;22;19919;-82
2023/04/04 10:37:21;;;;;;;;;;;;;;;;;;6264503;22;19919;-83
2023/04/04 10:39:47;;;;;;;;;;;;;;;;;;6238553;22;19949;-82
2023/04/04 10:42:12;;;;;;;;;;;;;;;;;;6239394;22;19915;-82
2023/04/04 10:44:38;;;;;;;;;;;;;;;;;;6266060;22;19986;-83
2023/04/04 10:47:04;;;;;;;;;;;;;;;;;;6262853;22;20344;-82
2023/04/04 10:49:31;;;;;;;;;;;;;;;;;;6264630;22;19922;-82
2023/04/04 10:51:57;;;;;;;;;;;;;;;;;;6236075;22;20256;-83
2023/04/04 10:54:22;;;;;;;;;;;;;;;;;;6266903;22;19915;-82
2023/04/04 10:56:48;;;;;;;;;;;;;;;;;;6238244;22;19998;-83
2023/04/04 10:59:14;;;;;;;;;;;;;;;;;;6238169;22;20295;-82
2023/04/04 11:01:41;;;;;;;;;;;;;;;;;;6237824;22;19942;-82
2023/04/04 11:04:07;;;;;;;;;;;;;;;;;;6237327;22;19926;-83
2023/04/04 11:06:33;;;;;;;;;;;;;;;;;;6236344;22;20255;-83
2023/04/04 11:09:00;;;;;;;;;;;;;;;;;;6262930;22;19927;-83
2023/04/04 11:11:27;;;;;;;;;;;;;;;;;;6264254;22;20245;-83
2023/04/04 11:13:52;;;;;;;;;;;;;;;;;;6264689;22;19930;-82
2023/04/04 11:19:10;;;;;;;;;;;;;;;;;;6268500;22;19954;-83
2023/04/04 11:21:39;;;;;;;;;;;;;;;;;;6270070;22;19945;-83
2023/04/04 11:24:05;;;;;;;;;;;;;;;;;;6294823;22;20706;-83
2023/04/04 11:26:31;;;;;;;;;;;;;;;;;;6269488;22;19925;-82
2023/04/04 11:28:57;;;;;;;;;;;;;;;;;;6267036;22;19914;-83
2023/04/04 11:31:23;;;;;;;;;;;;;;;;;;6268202;22;19915;-83
2023/04/04 11:33:49;;;;;;;;;;;;;;;;;;6265372;22;19922;-83
2023/04/04 11:36:16;;;;;;;;;;;;;;;;;;6271491;22;19926;-82
2023/04/04 11:38:42;;;;;;;;;;;;;;;;;;6246099;22;19930;-83
2023/04/04 11:41:09;;;;;;;;;;;;;;;;;;6239399;22;19922;-83
2023/04/04 11:43:36;;;;;;;;;;;;;;;;;;6244362;22;19914;-82
2023/04/04 11:46:06;;;;;;;;;;;;;;;;;;6242775;22;19922;-82
2023/04/04 11:48:32;;;;;;;;;;;;;;;;;;6271572;22;19919;-83
2023/04/04 11:50:59;;;;;;;;;;;;;;;;;;6269311;22;19970;-83
2023/04/04 11:53:25;;;;;;;;;;;;;;;;;;6271091;22;20251;-82
2023/04/04 11:55:51;;;;;;;;;;;;;;;;;;6242487;22;19915;-82
2023/04/04 11:58:18;;;;;;;;;;;;;;;;;;6271687;22;19915;-82
2023/04/04 12:00:44;;;;;;;;;;;;;;;;;;6246027;22;19950;-83
2023/04/04 12:03:11;;;;;;;;;;;;;;;;;;6242935;22;19930;-83
2023/04/04 12:05:37;;;;;;;;;;;;;;;;;;6299155;22;19950;-83
2023/04/04 12:08:03;;;;;;;;;;;;;;;;;;6269459;22;20324;-83
2023/04/04 12:10:30;;;;;;;;;;;;;;;;;;6298923;22;19922;-83
2023/04/04 12:12:56;;;;;;;;;;;;;;;;;;6268177;22;19919;-83
2023/04/04 12:15:22;;;;;;;;;;;;;;;;;;6244738;22;20367;-83
2023/04/04 12:17:51;;;;;;;;;;;;;;;;;;6269904;22;19926;-83
2023/04/04 12:20:20;;;;;;;;;;;;;;;;;;6271465;22;19967;-83
2023/04/04 12:22:46;;;;;;;;;;;;;;;;;;6267205;22;20340;-83
2023/04/04 12:25:12;;;;;;;;;;;;;;;;;;6246215;22;19923;-83
2023/04/04 12:27:38;;;;;;;;;;;;;;;;;;6299552;22;19915;-83
2023/04/04 12:30:06;;;;;;;;;;;;;;;;;;6269405;22;20328;-83
2023/04/04 12:32:32;;;;;;;;;;;;;;;;;;6296061;22;19934;-83
2023/04/04 12:34:58;;;;;;;;;;;;;;;;;;6296545;22;19977;-83
2023/04/04 12:37:25;;;;;;;;;;;;;;;;;;6297998;22;20343;-84
2023/04/04 12:39:51;;;;;;;;;;;;;;;;;;6295467;22;19919;-83
2023/04/04 12:42:17;;;;;;;;;;;;;;;;;;6271801;22;19919;-82
2023/04/04 12:44:43;;;;;;;;;;;;;;;;;;6243722;22;20363;-83
2023/04/04 12:47:10;;;;;;;;;;;;;;;;;;6242302;22;19955;-83
2023/04/04 12:49:36;;;;;;;;;;;;;;;;;;6271681;22;19915;-83
2023/04/04 12:52:06;;;;;;;;;;;;;;;;;;6243612;22;20141;-83
2023/04/04 12:54:32;;;;;;;;;;;;;;;;;;6245857;22;20332;-83
2023/04/04 12:56:58;;;;;;;;;;;;;;;;;;6242241;22;19922;-83
2023/04/04 12:59:24;;;;;;;;;;;;;;;;;;6269977;22;19919;-83
2023/04/04 13:01:50;;;;;;;;;;;;;;;;;;6240387;22;19919;-83
2023/04/04 13:04:17;;;;;;;;;;;;;;;;;;6270566;22;19919;-84
2023/04/04 13:06:43;;;;;;;;;;;;;;;;;;6244476;22;19946;-83
2023/04/04 13:09:09;;;;;;;;;;;;;;;;;;6241660;22;19978;-83
2023/04/04 13:11:35;;;;;;;;;;;;;;;;;;6268276;22;19918;-83
2023/04/04 13:14:01;;;;;;;;;;;;;;;;;;6265603;22;19938;-83
2023/04/04 13:16:27;;;;;;;;;;;;;;;;;;6270125;22;19942;-83
2023/04/04 13:18:53;;;;;;;;;;;;;;;;;;6267170;22;19919;-83
2023/04/04 13:21:19;;;;;;;;;;;;;;;;;;6270401;22;19930;-83
2023/04/04 13:23:45;;;;;;;;;;;;;;;;;;6246284;22;19990;-83
2023/04/04 13:26:11;;;;;;;;;;;;;;;;;;6270513;22;19968;-83
2023/04/04 13:28:37;;;;;;;;;;;;;;;;;;6268942;22;20282;-83
2023/04/04 13:31:03;;;;;;;;;;;;;;;;;;6241985;22;19915;-83
2023/04/04 13:33:29;;;;;;;;;;;;;;;;;;6247884;22;19958;-83
2023/04/04 13:35:56;;;;;;;;;;;;;;;;;;6269022;22;19919;-83
2023/04/04 13:38:22;;;;;;;;;;;;;;;;;;6245312;22;19929;-83
2023/04/04 13:40:48;;;;;;;;;;;;;;;;;;6267354;22;19919;-83
2023/04/04 13:43:14;;;;;;;;;;;;;;;;;;6243408;22;19937;-83
2023/04/04 13:45:41;;;;;;;;;;;;;;;;;;6242492;22;20327;-83
2023/04/04 13:48:07;;;;;;;;;;;;;;;;;;6238874;22;19915;-83
2023/04/04 13:50:33;;;;;;;;;;;;;;;;;;6267477;22;20247;-83
2023/04/04 13:52:59;;;;;;;;;;;;;;;;;;6290616;22;19930;-83
2023/04/04 13:55:25;;;;;;;;;;;;;;;;;;6238162;22;20315;-83
2023/04/04 13:57:51;;;;;;;;;;;;;;;;;;6289699;22;19937;-83
2023/04/04 14:00:17;;;;;;;;;;;;;;;;;;6294020;22;19915;-83
2023/04/04 14:02:43;;;;;;;;;;;;;;;;;;6240579;22;19990;-82
2023/04/04 14:05:09;;;;;;;;;;;;;;;;;;6231894;22;20227;-83
2023/04/04 14:07:38;;;;;;;;;;;;;;;;;;6236743;22;20004;-83
2023/04/04 14:19:48;;;;;;;;;;;;;;;;;;6050534;23;19947;-83
2023/04/04 14:26:18;;;;;;;;;;;;;;;;;;6003633;23;19921;-83
2023/04/04 14:39:12;;;;;;;;;;;;;;;;;;5924051;24;19930;-83
2023/04/04 14:52:35;;;;;;;;;;;;;;;;;;;;;
2023/04/04 15:04:34;;;;;;;;;;;;;;;;;;5911759;24;19922;-83
2023/04/04 15:07:23;;;;;;;;;;;;;;;;;;5886795;24;19919;-83
2023/04/04 15:09:49;;;;;;;;;;;;;;;;;;5975620;23;20012;-83
2023/04/04 15:26:19;;;;;;;;;;;;;;;;;;;;;
2023/04/04 15:29:06;;;;;;;;;;;;;;;;;;6258755;22;19933;-84
2023/04/04 15:35:05;;;;;;;;;;;;;;;;;;6135800;23;20525;-84
2023/04/04 15:40:38;;;;;;;;;;;;;;;;;;6196027;22;20292;-84
2023/04/04 15:43:28;;;;;;;;;;;;;;;;;;6169378;23;20389;-84
2023/04/04 15:46:20;;;;;;;;;;;;;;;;;;;;;
2023/04/04 16:19:18;;;;;;;;;;;;;;;;;;;;;
2023/04/04 17:32:20;;;;;;;;;;;;;;;;;;6196803;23;19970;-83
2023/04/04 17:37:57;;;;;;;;;;;;;;;;;;6175389;23;19970;-83
2023/04/04 17:40:26;;;;;;;;;;;;;;;;;;6202396;23;20412;-83
2023/04/04 17:42:52;;;;;;;;;;;;;;;;;;6199078;23;20123;-83
2023/04/04 17:45:18;;;;;;;;;;;;;;;;;;6203168;23;19924;-83
2023/04/04 17:47:47;;;;;;;;;;;;;;;;;;6200996;23;19920;-83
2023/04/04 17:50:14;;;;;;;;;;;;;;;;;;6201541;23;19926;-83
2023/04/04 17:52:40;;;;;;;;;;;;;;;;;;6199548;23;19959;-83
2023/04/04 17:55:07;;;;;;;;;;;;;;;;;;6197926;23;19920;-83
2023/04/04 17:57:46;;;;;;;;;;;;;;;;;;;;;
2023/04/04 18:00:12;;;;;;;;;;;;;;;;;;6205121;23;19920;-83
2023/04/04 18:02:38;;;;;;;;;;;;;;;;;;6205499;23;19920;-83
2023/04/04 18:05:04;;;;;;;;;;;;;;;;;;6200197;23;19966;-83
2023/04/04 18:07:30;;;;;;;;;;;;;;;;;;6206099;23;19916;-83
2023/04/04 18:09:56;;;;;;;;;;;;;;;;;;6177715;23;20316;-83
2023/04/04 18:12:25;;;;;;;;;;;;;;;;;;6178237;23;19919;-83
2023/04/04 18:14:51;;;;;;;;;;;;;;;;;;6176898;23;19944;-84
2023/04/04 18:17:17;;;;;;;;;;;;;;;;;;6205446;23;19916;-83
2023/04/04 18:19:43;;;;;;;;;;;;;;;;;;6206220;23;19920;-84
2023/04/04 18:22:09;;;;;;;;;;;;;;;;;;6199162;23;20014;-83
2023/04/04 18:24:36;;;;;;;;;;;;;;;;;;6205995;23;19974;-83
2023/04/04 18:27:02;;;;;;;;;;;;;;;;;;6204028;23;19916;-83
2023/04/04 18:29:29;;;;;;;;;;;;;;;;;;6207177;23;20006;-83
2023/04/04 18:31:57;;;;;;;;;;;;;;;;;;6206232;23;21447;-83
2023/04/04 18:34:26;;;;;;;;;;;;;;;;;;6209998;23;19994;-83
2023/04/04 18:36:52;;;;;;;;;;;;;;;;;;6207439;23;19957;-83
2023/04/04 18:48:59;;;;;;;;;;;;;;;;;;;;;
2023/04/04 19:01:34;;;;;;;;;;;;;;;;;;;;;
2023/04/04 19:10:25;;;;;;;;;;;;;;;;;;;;;
2023/04/04 19:22:25;;;;;;;;;;;;;;;;;;;;;
2023/04/04 19:25:19;;;;;;;;;;;;;;;;;;;;;
2023/04/04 19:28:00;;;;;;;;;;;;;;;;;;6004554;23;19920;-83
2023/04/04 19:30:42;;;;;;;;;;;;;;;;;;6061768;23;20457;-82
2023/04/04 19:33:17;;;;;;;;;;;;;;;;;;6053815;23;19973;-83
2023/04/04 19:36:07;;;;;;;;;;;;;;;;;;6101782;23;20031;-83
2023/04/04 19:41:23;;;;;;;;;;;;;;;;;;6112867;23;19953;-83
2023/04/04 19:43:55;;;;;;;;;;;;;;;;;;6108683;23;19927;-83
2023/04/04 19:49:55;;;;;;;;;;;;;;;;;;6097573;23;20471;-83
2023/04/04 19:52:26;;;;;;;;;;;;;;;;;;6145445;23;20019;-83
2023/04/04 19:54:57;;;;;;;;;;;;;;;;;;6143869;23;19920;-83
2023/04/04 20:50:40;;;;;;;;;;;;;;;;;;6267304;22;19930;-81
2023/04/04 20:53:06;;;;;;;;;;;;;;;;;;6210317;22;20397;-81
2023/04/04 20:55:32;;;;;;;;;;;;;;;;;;6237465;22;20254;-81
2023/04/04 20:57:58;;;;;;;;;;;;;;;;;;6210731;22;19919;-81
2023/04/04 21:00:28;;;;;;;;;;;;;;;;;;6213646;22;19923;-81
2023/04/04 21:02:54;;;;;;;;;;;;;;;;;;6236652;22;20391;-82
2023/04/04 21:05:20;;;;;;;;;;;;;;;;;;6239553;22;19997;-81
2023/04/04 21:07:46;;;;;;;;;;;;;;;;;;6236074;22;19950;-82
2023/04/04 21:10:12;;;;;;;;;;;;;;;;;;6244717;22;19930;-81
2023/04/04 21:12:38;;;;;;;;;;;;;;;;;;6267352;22;19919;-81
2023/04/04 21:15:04;;;;;;;;;;;;;;;;;;6294364;22;19976;-81
2023/04/04 21:17:30;;;;;;;;;;;;;;;;;;6245835;22;20378;-81
2023/04/04 21:19:56;;;;;;;;;;;;;;;;;;6240271;22;19919;-81
2023/04/04 21:22:23;;;;;;;;;;;;;;;;;;6266953;22;19919;-81
2023/04/04 21:24:49;;;;;;;;;;;;;;;;;;6261853;22;19915;-81
2023/04/04 21:27:15;;;;;;;;;;;;;;;;;;6243994;22;19919;-81
2023/04/04 21:29:41;;;;;;;;;;;;;;;;;;6300355;22;20323;-81
2023/04/04 21:32:07;;;;;;;;;;;;;;;;;;6272893;22;19923;-81
2023/04/04 21:34:34;;;;;;;;;;;;;;;;;;6277215;22;19918;-81
2023/04/04 21:37:00;;;;;;;;;;;;;;;;;;6274465;22;19919;-81
2023/04/04 21:39:28;;;;;;;;;;;;;;;;;;6275571;22;19921;-81
2023/04/04 21:41:55;;;;;;;;;;;;;;;;;;6299201;22;19919;-81
2023/04/04 21:44:21;;;;;;;;;;;;;;;;;;6274847;22;19945;-81
2023/04/04 21:46:47;;;;;;;;;;;;;;;;;;6273518;22;19922;-82
2023/04/04 21:49:13;;;;;;;;;;;;;;;;;;6271616;22;19955;-81
2023/04/04 21:51:39;;;;;;;;;;;;;;;;;;6297485;22;20391;-81
2023/04/04 21:54:05;;;;;;;;;;;;;;;;;;6270641;22;19950;-81
2023/04/04 21:56:31;;;;;;;;;;;;;;;;;;6297545;22;19919;-81
2023/04/04 21:58:57;;;;;;;;;;;;;;;;;;6294532;22;19925;-80
2023/04/04 22:01:23;;;;;;;;;;;;;;;;;;6267937;22;19915;-81
2023/04/04 22:03:49;;;;;;;;;;;;;;;;;;6293563;22;20250;-81
2023/04/04 22:06:15;;;;;;;;;;;;;;;;;;6293723;22;19927;-81
2023/04/04 22:08:41;;;;;;;;;;;;;;;;;;6295274;22;19961;-81
2023/04/04 22:11:07;;;;;;;;;;;;;;;;;;6269528;22;20331;-81
2023/04/04 22:13:33;;;;;;;;;;;;;;;;;;6299865;22;19989;-81
2023/04/04 22:15:59;;;;;;;;;;;;;;;;;;6268896;22;19926;-81
2023/04/04 22:18:34;;;;;;;;;;;;;;;;;;6270828;22;19955;-81
2023/04/04 22:21:03;;;;;;;;;;;;;;;;;;6266734;22;19919;-81
2023/04/04 22:23:34;;;;;;;;;;;;;;;;;;6297073;22;19921;-81
2023/04/04 22:26:01;;;;;;;;;;;;;;;;;;6294953;22;20244;-81
2023/04/04 22:28:27;;;;;;;;;;;;;;;;;;6296960;22;19919;-81
2023/04/04 22:30:53;;;;;;;;;;;;;;;;;;6292250;22;20232;-81
2023/04/04 22:33:19;;;;;;;;;;;;;;;;;;6297090;22;19950;-82
2023/04/04 22:35:46;;;;;;;;;;;;;;;;;;6297121;22;19953;-80
2023/04/04 22:38:13;;;;;;;;;;;;;;;;;;6272241;22;20324;-80
2023/04/04 22:40:39;;;;;;;;;;;;;;;;;;6270998;22;19915;-80
2023/04/04 22:43:05;;;;;;;;;;;;;;;;;;6269066;22;19919;-80
2023/04/04 22:45:32;;;;;;;;;;;;;;;;;;6270066;22;20355;-80
2023/04/04 22:48:00;;;;;;;;;;;;;;;;;;6267119;22;19919;-81
2023/04/04 22:50:26;;;;;;;;;;;;;;;;;;6293709;22;20306;-81
2023/04/04 22:52:53;;;;;;;;;;;;;;;;;;6294420;22;19964;-81
2023/04/04 22:55:19;;;;;;;;;;;;;;;;;;6291819;22;19919;-81
2023/04/04 22:57:45;;;;;;;;;;;;;;;;;;6266588;22;19926;-80
2023/04/04 23:00:11;;;;;;;;;;;;;;;;;;6264675;22;19918;-80
2023/04/04 23:02:37;;;;;;;;;;;;;;;;;;6290617;22;19922;-80
2023/04/04 23:05:03;;;;;;;;;;;;;;;;;;6284739;22;19919;-81
2023/04/04 23:07:30;;;;;;;;;;;;;;;;;;6287160;22;19926;-81
2023/04/04 23:09:58;;;;;;;;;;;;;;;;;;6287528;22;20220;-81
2023/04/04 23:12:26;;;;;;;;;;;;;;;;;;6288122;22;19918;-80
2023/04/04 23:14:52;;;;;;;;;;;;;;;;;;6288383;22;19925;-81
2023/04/04 23:17:18;;;;;;;;;;;;;;;;;;6290264;22;20395;-81
2023/04/04 23:19:44;;;;;;;;;;;;;;;;;;6291466;22;20262;-81
2023/04/04 23:22:13;;;;;;;;;;;;;;;;;;6288507;22;19918;-80
2023/04/04 23:24:40;;;;;;;;;;;;;;;;;;6294059;22;20359;-81
2023/04/04 23:27:06;;;;;;;;;;;;;;;;;;6291219;22;20747;-80
2023/04/04 23:29:32;;;;;;;;;;;;;;;;;;6292270;22;19968;-81
2023/04/04 23:31:58;;;;;;;;;;;;;;;;;;6292424;22;19926;-81
2023/04/04 23:34:24;;;;;;;;;;;;;;;;;;6296411;22;19919;-80
2023/04/04 23:36:50;;;;;;;;;;;;;;;;;;6266557;22;20323;-81
2023/04/04 23:39:16;;;;;;;;;;;;;;;;;;6286635;22;19998;-81
2023/04/04 23:41:42;;;;;;;;;;;;;;;;;;6289889;22;19972;-81
2023/04/04 23:44:08;;;;;;;;;;;;;;;;;;6258578;22;19922;-81
2023/04/04 23:46:34;;;;;;;;;;;;;;;;;;6262808;22;19922;-81
2023/04/04 23:49:00;;;;;;;;;;;;;;;;;;6261737;22;19919;-82
2023/04/04 23:51:29;;;;;;;;;;;;;;;;;;6296664;22;19945;-82
2023/04/04 23:53:55;;;;;;;;;;;;;;;;;;6293074;22;19993;-82
2023/04/04 23:56:21;;;;;;;;;;;;;;;;;;6269690;22;20012;-82
2023/04/04 23:58:47;;;;;;;;;;;;;;;;;;6292878;22;19923;-82
